createdAt,value
2018-06-11T00:00:22.849Z,8.73
2018-06-11T00:02:51.777Z,9.47
2018-06-11T00:05:20.688Z,6.87
2018-06-11T00:07:49.609Z,11.27
2018-06-11T00:10:18.516Z,11.67
2018-06-11T00:12:47.464Z,7.60
2018-06-11T00:15:16.403Z,11.23
2018-06-11T00:17:45.496Z,8.87
2018-06-11T00:20:14.453Z,14.50
2018-06-11T00:22:43.459Z,10.97
2018-06-11T00:25:12.395Z,7.80
2018-06-11T00:27:41.322Z,12.90
2018-06-11T00:30:10.272Z,10.00
2018-06-11T00:32:39.201Z,11.47
2018-06-11T00:35:07.721Z,11.90
2018-06-11T00:37:36.657Z,10.23
2018-06-11T00:40:05.592Z,11.73
2018-06-11T00:42:34.514Z,11.23
2018-06-11T00:45:03.494Z,10.20
2018-06-11T00:47:32.434Z,8.67
2018-06-11T00:50:01.354Z,12.00
2018-06-11T00:52:30.306Z,9.93
2018-06-11T00:54:59.231Z,11.13
2018-06-11T00:57:28.198Z,9.00
2018-06-11T00:59:57.129Z,11.40
2018-06-11T01:02:26.062Z,8.10
2018-06-11T01:04:55.009Z,14.23
2018-06-11T01:07:23.942Z,9.87
2018-06-11T01:09:52.893Z,10.77
2018-06-11T01:12:21.826Z,10.77
2018-06-11T01:14:50.745Z,9.60
2018-06-11T01:17:19.674Z,13.10
2018-06-11T01:19:48.607Z,6.80
2018-06-11T01:22:17.529Z,12.20
2018-06-11T01:24:46.445Z,12.73
2018-06-11T01:27:15.378Z,9.17
2018-06-11T01:29:44.297Z,10.77
2018-06-11T01:32:13.213Z,9.17
2018-06-11T01:34:42.143Z,10.10
2018-06-11T01:37:11.111Z,10.90
2018-06-11T01:39:40.036Z,6.63
2018-06-11T01:42:08.957Z,8.73
2018-06-11T01:44:37.915Z,10.23
2018-06-11T01:47:06.833Z,9.70
2018-06-11T01:49:35.777Z,8.43
2018-06-11T01:52:04.713Z,10.17
2018-06-11T01:54:33.652Z,6.30
2018-06-11T01:57:02.595Z,10.90
2018-06-11T01:59:31.542Z,9.77
2018-06-11T02:02:00.493Z,7.30
2018-06-11T02:04:28.992Z,8.13
2018-06-11T02:06:57.942Z,8.87
2018-06-11T02:09:26.865Z,7.03
2018-06-11T02:11:55.778Z,8.40
2018-06-11T02:14:24.690Z,8.00
2018-06-11T02:16:53.669Z,8.17
2018-06-11T02:19:22.581Z,7.07
2018-06-11T02:21:51.547Z,7.07
2018-06-11T02:24:20.489Z,9.90
2018-06-11T02:26:49.420Z,10.03
2018-06-11T02:29:18.359Z,8.23
2018-06-11T02:31:47.293Z,6.97
2018-06-11T02:34:16.189Z,11.73
2018-06-11T02:36:45.098Z,6.80
2018-06-11T02:39:14.045Z,6.43
2018-06-11T02:41:42.970Z,8.83
2018-06-11T02:44:11.890Z,6.67
2018-06-11T02:46:40.815Z,7.53
2018-06-11T02:49:09.738Z,15.87
2018-06-11T02:55:36.580Z,9.03
2018-06-11T02:58:05.645Z,25.40
2018-06-11T03:00:34.538Z,8.17
2018-06-11T03:03:03.448Z,9.30
2018-06-11T03:05:32.395Z,9.37
2018-06-11T03:08:01.310Z,7.03
2018-06-11T03:10:30.298Z,9.40
2018-06-11T03:12:59.228Z,9.70
2018-06-11T03:15:27.754Z,11.93
2018-06-11T03:17:56.709Z,10.83
2018-06-11T03:20:25.636Z,7.27
2018-06-11T03:22:54.562Z,11.27
2018-06-11T03:25:23.469Z,5.13
2018-06-11T03:27:52.429Z,6.07
2018-06-11T03:30:21.351Z,9.53
2018-06-11T03:32:50.283Z,9.97
2018-06-11T03:35:19.240Z,11.17
2018-06-11T03:37:48.165Z,11.50
2018-06-11T03:40:17.157Z,12.10
2018-06-11T03:42:46.058Z,10.47
2018-06-11T03:45:15.025Z,8.37
2018-06-11T03:47:43.954Z,10.03
2018-06-11T03:50:12.867Z,7.07
2018-06-11T03:52:41.819Z,10.47
2018-06-11T03:55:10.864Z,8.40
2018-06-11T03:57:39.798Z,7.57
2018-06-11T04:00:08.769Z,6.90
2018-06-11T04:02:37.693Z,8.90
2018-06-11T04:05:06.606Z,11.00
2018-06-11T04:07:35.584Z,9.70
2018-06-11T04:10:04.658Z,6.30
2018-06-11T04:12:33.572Z,8.73
2018-06-11T04:15:02.469Z,11.50
2018-06-11T04:17:31.393Z,6.60
2018-06-11T04:20:00.316Z,6.43
2018-06-11T04:22:29.209Z,9.30
2018-06-11T04:24:58.128Z,8.37
2018-06-11T04:27:27.037Z,5.63
2018-06-11T04:29:55.949Z,8.43
2018-06-11T04:32:24.884Z,6.33
2018-06-11T04:34:53.794Z,14.97
2018-06-11T04:37:22.686Z,13.83
2018-06-11T04:39:51.581Z,11.43
2018-06-11T04:42:20.473Z,8.50
2018-06-11T04:44:49.363Z,14.07
2018-06-11T04:47:18.318Z,11.27
2018-06-11T04:49:47.216Z,7.50
2018-06-11T04:52:16.125Z,7.57
2018-06-11T04:54:45.017Z,13.27
2018-06-11T04:57:13.908Z,6.83
2018-06-11T04:59:42.797Z,5.37
2018-06-11T05:02:11.693Z,10.13
2018-06-11T05:04:40.585Z,8.57
2018-06-11T05:07:09.499Z,5.73
2018-06-11T05:09:38.434Z,6.73
2018-06-11T05:12:07.369Z,5.37
2018-06-11T05:14:36.265Z,7.47
2018-06-11T05:17:05.185Z,7.33
2018-06-11T05:19:33.705Z,11.40
2018-06-11T05:22:02.765Z,6.93
2018-06-11T05:24:31.707Z,7.50
2018-06-11T05:27:00.602Z,7.70
2018-06-11T05:29:29.572Z,10.20
2018-06-11T05:31:58.476Z,10.57
2018-06-11T05:34:27.433Z,9.57
2018-06-11T05:36:56.342Z,7.70
2018-06-11T05:39:25.273Z,12.03
2018-06-11T05:41:54.187Z,7.67
2018-06-11T05:44:23.165Z,5.13
2018-06-11T05:46:52.102Z,8.97
2018-06-11T05:49:21.021Z,8.63
2018-06-11T05:51:49.950Z,8.00
2018-06-11T05:54:18.850Z,8.63
2018-06-11T05:56:47.787Z,8.63
2018-06-11T05:59:16.685Z,6.87
2018-06-11T06:01:45.593Z,8.80
2018-06-11T06:04:14.517Z,11.37
2018-06-11T06:06:43.009Z,6.43
2018-06-11T06:09:11.902Z,8.03
2018-06-11T06:11:40.391Z,9.00
2018-06-11T06:14:09.345Z,8.00
2018-06-11T06:16:38.256Z,8.73
2018-06-11T06:19:07.166Z,7.97
2018-06-11T06:21:36.079Z,10.20
2018-06-11T06:24:05.069Z,14.10
2018-06-11T06:26:34.033Z,9.00
2018-06-11T06:29:02.944Z,7.40
2018-06-11T06:31:31.846Z,9.10
2018-06-11T06:34:00.745Z,6.53
2018-06-11T06:36:29.738Z,7.00
2018-06-11T06:38:58.654Z,6.37
2018-06-11T06:41:27.574Z,11.07
2018-06-11T06:43:56.457Z,13.03
2018-06-11T06:46:25.356Z,7.77
2018-06-11T06:48:54.258Z,10.23
2018-06-11T06:51:23.173Z,9.47
2018-06-11T06:53:52.377Z,8.67
2018-06-11T06:56:21.289Z,7.63
2018-06-11T06:58:50.225Z,10.73
2018-06-11T07:01:19.175Z,7.90
2018-06-11T07:03:48.093Z,11.33
2018-06-11T07:06:17.067Z,8.13
2018-06-11T07:08:46.058Z,10.30
2018-06-11T07:11:14.986Z,7.60
2018-06-11T07:13:43.991Z,12.80
2018-06-11T07:16:12.965Z,6.87
2018-06-11T07:18:41.886Z,7.17
2018-06-11T07:21:10.810Z,9.80
2018-06-11T07:23:39.729Z,8.63
2018-06-11T07:26:08.741Z,10.73
2018-06-11T07:28:37.641Z,11.53
2018-06-11T07:31:06.575Z,8.23
2018-06-11T07:33:35.549Z,6.90
2018-06-11T07:36:04.513Z,9.63
2018-06-11T07:38:33.441Z,12.40
2018-06-11T07:41:02.377Z,10.00
2018-06-11T07:43:31.354Z,7.60
2018-06-11T07:46:00.286Z,8.27
2018-06-11T07:48:29.194Z,11.90
2018-06-11T07:50:58.102Z,8.87
2018-06-11T07:53:27.037Z,6.43
2018-06-11T07:55:55.950Z,5.83
2018-06-11T07:58:24.891Z,11.50
2018-06-11T08:00:53.830Z,13.77
2018-06-11T08:03:22.757Z,7.73
2018-06-11T08:05:51.723Z,13.03
2018-06-11T08:08:20.694Z,7.27
2018-06-11T08:10:49.642Z,6.73
2018-06-11T08:13:18.541Z,8.53
2018-06-11T08:15:47.453Z,12.57
2018-06-11T08:18:16.423Z,7.40
2018-06-11T08:20:45.371Z,15.23
2018-06-11T08:23:14.301Z,7.33
2018-06-11T08:25:43.377Z,8.63
2018-06-11T08:28:12.323Z,7.33
2018-06-11T08:30:41.287Z,6.70
2018-06-11T08:33:10.216Z,8.73
2018-06-11T08:35:39.170Z,8.40
2018-06-11T08:38:08.121Z,6.23
2018-06-11T08:40:37.057Z,7.63
2018-06-11T08:43:05.998Z,8.77
2018-06-11T08:45:34.946Z,12.10
2018-06-11T08:48:03.886Z,6.47
2018-06-11T08:50:35.630Z,6.93
2018-06-11T08:53:07.215Z,8.30
2018-06-11T08:55:38.666Z,9.90
2018-06-11T08:58:10.262Z,10.27
2018-06-11T09:00:40.660Z,9.77
2018-06-11T09:03:11.802Z,6.93
2018-06-11T09:05:44.280Z,5.90
2018-06-11T09:08:17.231Z,7.37
2018-06-11T09:10:51.582Z,8.43
2018-06-11T09:13:22.862Z,8.20
2018-06-11T09:15:53.641Z,8.10
2018-06-11T09:18:31.415Z,7.93
2018-06-11T09:21:02.594Z,5.73
2018-06-11T09:23:34.480Z,7.77
2018-06-11T09:26:06.695Z,8.70
2018-06-11T09:28:38.950Z,9.07
2018-06-11T09:31:11.055Z,7.03
2018-06-11T09:33:44.005Z,7.20
2018-06-11T09:36:16.885Z,5.97
2018-06-11T09:38:45.857Z,7.97
2018-06-11T09:41:14.781Z,9.50
2018-06-11T09:43:44.452Z,8.93
2018-06-11T09:46:13.426Z,6.23
2018-06-11T09:48:42.371Z,8.57
2018-06-11T09:51:12.366Z,5.63
2018-06-11T09:53:41.288Z,5.77
2018-06-11T09:56:10.310Z,5.73
2018-06-11T09:58:39.234Z,10.13
2018-06-11T10:01:09.308Z,9.70
2018-06-11T10:03:40.493Z,5.07
2018-06-11T10:06:10.073Z,11.20
2018-06-11T10:08:38.997Z,7.87
2018-06-11T10:11:07.910Z,11.30
2018-06-11T10:13:36.880Z,9.13
2018-06-11T10:16:05.872Z,5.93
2018-06-11T10:18:34.833Z,5.50
2018-06-11T10:21:03.766Z,8.53
2018-06-11T10:23:32.257Z,6.70
2018-06-11T10:26:01.201Z,9.07
2018-06-11T10:28:30.148Z,9.63
2018-06-11T10:30:59.072Z,6.90
2018-06-11T10:33:27.990Z,6.77
2018-06-11T10:35:56.926Z,11.17
2018-06-11T10:38:25.886Z,7.20
2018-06-11T10:40:54.798Z,10.03
2018-06-11T10:43:23.299Z,9.03
2018-06-11T10:45:52.240Z,8.60
2018-06-11T10:48:21.201Z,5.43
2018-06-11T10:50:50.118Z,7.87
2018-06-11T10:53:19.070Z,8.13
2018-06-11T10:55:48.009Z,10.80
2018-06-11T10:58:16.982Z,6.57
2018-06-11T11:00:45.905Z,7.33
2018-06-11T11:03:14.821Z,6.53
2018-06-11T11:05:43.750Z,6.37
2018-06-11T11:08:12.722Z,4.87
2018-06-11T11:10:41.650Z,8.37
2018-06-11T11:13:10.617Z,7.30
2018-06-11T11:15:39.546Z,9.43
2018-06-11T11:18:08.479Z,5.70
2018-06-11T11:20:37.396Z,9.60
2018-06-11T11:23:06.505Z,8.40
2018-06-11T11:25:35.441Z,8.23
2018-06-11T11:28:04.373Z,8.13
2018-06-11T11:30:33.318Z,9.67
2018-06-11T11:33:02.238Z,8.50
2018-06-11T11:35:31.159Z,8.03
2018-06-11T11:38:00.085Z,10.40
2018-06-11T11:40:28.580Z,8.10
2018-06-11T11:42:57.496Z,9.23
2018-06-11T11:45:26.430Z,8.07
2018-06-11T11:47:55.369Z,10.97
2018-06-11T11:50:24.350Z,7.73
2018-06-11T11:52:53.270Z,7.73
2018-06-11T11:55:22.978Z,8.83
2018-06-11T11:57:52.486Z,9.20
2018-06-11T12:00:21.394Z,7.67
2018-06-11T12:02:50.313Z,7.20
2018-06-11T12:05:19.238Z,9.20
2018-06-11T12:07:48.147Z,9.93
2018-06-11T12:10:17.133Z,9.43
2018-06-11T12:12:46.085Z,8.73
2018-06-11T12:15:15.024Z,8.60
2018-06-11T12:17:43.998Z,6.70
2018-06-11T12:20:12.940Z,10.17
2018-06-11T12:22:41.867Z,11.50
2018-06-11T12:25:10.791Z,9.93
2018-06-11T12:27:39.733Z,8.30
2018-06-11T12:30:08.680Z,11.57
2018-06-11T12:32:37.623Z,6.10
2018-06-11T12:35:06.170Z,5.20
2018-06-11T12:37:35.090Z,9.37
2018-06-11T12:40:04.129Z,8.70
2018-06-11T12:42:33.038Z,9.93
2018-06-11T12:45:01.971Z,8.53
2018-06-11T12:47:30.512Z,9.47
2018-06-11T12:49:59.466Z,7.50
2018-06-11T12:52:28.401Z,8.13
2018-06-11T12:54:57.306Z,24.23
2018-06-11T12:57:26.225Z,6.37
2018-06-11T12:59:55.190Z,10.30
2018-06-11T13:02:24.131Z,11.07
2018-06-11T13:04:53.589Z,7.37
2018-06-11T13:07:22.508Z,7.50
2018-06-11T13:09:51.471Z,8.97
2018-06-11T13:12:20.379Z,12.37
2018-06-11T13:14:49.326Z,6.77
2018-06-11T13:17:18.258Z,8.53
2018-06-11T13:19:47.173Z,7.23
2018-06-11T13:22:16.078Z,11.10
2018-06-11T13:24:44.993Z,8.80
2018-06-11T13:27:13.957Z,6.70
2018-06-11T13:29:43.767Z,8.87
2018-06-11T13:32:12.670Z,8.20
2018-06-11T13:34:41.590Z,11.00
2018-06-11T13:37:10.518Z,7.93
2018-06-11T13:39:39.469Z,13.77
2018-06-11T13:42:08.388Z,11.70
2018-06-11T13:44:37.345Z,7.30
2018-06-11T13:47:06.349Z,6.40
2018-06-11T13:49:35.254Z,5.87
2018-06-11T13:52:04.593Z,3.67
2018-06-11T13:54:33.525Z,3.77
2018-06-11T13:57:02.476Z,13.57
2018-06-11T13:59:35.492Z,9.00
2018-06-11T14:02:04.937Z,6.07
2018-06-11T14:04:33.893Z,4.00
2018-06-11T14:07:02.839Z,5.27
2018-06-11T14:09:31.348Z,2.23
2018-06-11T14:12:00.253Z,5.67
2018-06-11T14:14:29.191Z,3.23
2018-06-11T14:16:58.117Z,3.30
2018-06-11T14:19:27.035Z,4.63
2018-06-11T14:21:55.988Z,5.80
2018-06-11T14:24:24.911Z,2.67
2018-06-11T14:26:53.841Z,4.30
2018-06-11T14:29:22.777Z,2.37
2018-06-11T14:31:51.700Z,1.50
2018-06-11T14:34:20.622Z,2.20
2018-06-11T14:36:49.605Z,4.27
2018-06-11T14:39:18.520Z,2.50
2018-06-11T14:41:48.235Z,0.90
2018-06-11T14:44:17.144Z,4.50
2018-06-11T14:46:46.074Z,4.70
2018-06-11T14:49:15.013Z,2.90
2018-06-11T14:51:43.561Z,4.13
2018-06-11T14:54:12.480Z,3.60
2018-06-11T14:56:41.434Z,5.87
2018-06-11T14:59:23.269Z,19.63
2018-06-11T15:01:52.528Z,3.77
2018-06-11T15:04:21.501Z,2.83
2018-06-11T15:06:50.552Z,2.83
2018-06-11T15:09:19.654Z,4.60
2018-06-11T15:11:48.594Z,3.63
2018-06-11T15:14:17.542Z,3.23
2018-06-11T15:16:46.509Z,2.83
2018-06-11T15:19:16.142Z,1.80
2018-06-11T15:21:46.677Z,3.40
2018-06-11T15:24:16.698Z,1.37
2018-06-11T15:26:46.801Z,1.33
2018-06-11T15:29:16.951Z,1.27
2018-06-11T15:31:47.907Z,7.23
2018-06-11T15:34:18.085Z,4.13
2018-06-11T15:36:49.656Z,2.60
2018-06-11T15:39:21.286Z,4.13
2018-06-11T15:41:51.450Z,1.13
2018-06-11T15:44:24.316Z,1.27
2018-06-11T15:46:53.717Z,1.63
2018-06-11T15:49:25.306Z,0.77
2018-06-11T15:51:57.242Z,2.37
2018-06-11T15:54:29.781Z,3.23
2018-06-11T15:57:04.383Z,1.07
2018-06-11T15:59:36.822Z,0.80
2018-06-11T16:02:09.873Z,1.73
2018-06-11T16:04:40.864Z,2.60
2018-06-11T16:07:14.866Z,0.27
2018-06-11T16:09:49.254Z,0.43
2018-06-11T16:12:20.966Z,0.50
2018-06-11T16:14:54.400Z,1.33
2018-06-11T16:17:28.733Z,0.63
2018-06-11T16:20:01.815Z,1.10
2018-06-11T16:22:31.915Z,0.30
2018-06-11T16:25:01.900Z,0.73
2018-06-11T16:27:36.931Z,2.20
2018-06-11T16:30:09.607Z,1.53
2018-06-11T16:32:43.058Z,0.20
2018-06-11T16:35:14.258Z,0.63
2018-06-11T16:37:47.611Z,0.73
2018-06-11T16:40:17.551Z,1.80
2018-06-11T16:42:50.656Z,0.60
2018-06-11T16:45:24.883Z,1.77
2018-06-11T16:47:56.031Z,1.90
2018-06-11T16:50:30.855Z,0.60
2018-06-11T16:53:02.201Z,0.57
2018-06-11T16:55:36.206Z,2.30
2018-06-11T16:58:06.694Z,0.30
2018-06-11T17:00:37.942Z,2.17
2018-06-11T17:03:10.216Z,0.97
2018-06-11T17:05:46.015Z,3.50
2018-06-11T17:08:23.777Z,1.17
2018-06-11T17:10:56.331Z,0.90
2018-06-11T17:13:27.904Z,1.43
2018-06-11T17:15:59.967Z,0.70
2018-06-11T17:18:29.933Z,0.70
2018-06-11T17:21:02.836Z,3.60
2018-06-11T17:23:31.988Z,1.47
2018-06-11T17:26:00.923Z,0.67
2018-06-11T17:28:29.844Z,1.43
2018-06-11T17:30:58.777Z,2.53
2018-06-11T17:33:27.689Z,1.07
2018-06-11T17:35:56.628Z,0.50
2018-06-11T17:38:25.568Z,1.33
2018-06-11T17:40:54.068Z,0.57
2018-06-11T17:43:22.996Z,1.33
2018-06-11T17:45:51.954Z,1.83
2018-06-11T17:48:20.969Z,0.60
2018-06-11T17:50:49.944Z,1.27
2018-06-11T17:53:18.919Z,2.83
2018-06-11T17:55:47.433Z,1.00
2018-06-11T17:58:16.381Z,1.00
2018-06-11T18:00:45.330Z,4.73
2018-06-11T18:03:14.261Z,0.93
2018-06-11T18:05:42.740Z,0.83
2018-06-11T18:08:11.646Z,0.50
2018-06-11T18:10:40.525Z,1.50
2018-06-11T18:13:09.437Z,0.63
2018-06-11T18:15:38.320Z,0.57
2018-06-11T18:18:06.806Z,1.13
2018-06-11T18:20:35.759Z,0.80
2018-06-11T18:23:04.662Z,0.70
2018-06-11T18:25:33.561Z,1.77
2018-06-11T18:28:02.486Z,1.20
2018-06-11T18:30:31.385Z,5.20
2018-06-11T18:33:00.302Z,2.90
2018-06-11T18:35:29.233Z,3.27
2018-06-11T18:37:58.136Z,1.60
2018-06-11T18:40:27.061Z,0.90
2018-06-11T18:42:55.950Z,0.93
2018-06-11T18:45:24.851Z,2.47
2018-06-11T18:47:53.874Z,0.80
2018-06-11T18:50:22.813Z,1.13
2018-06-11T18:52:51.762Z,1.67
2018-06-11T18:55:20.742Z,5.33
2018-06-11T18:57:49.706Z,1.87
2018-06-11T19:00:18.589Z,1.13
2018-06-11T19:02:47.490Z,1.07
2018-06-11T19:05:16.417Z,2.40
2018-06-11T19:07:45.321Z,0.33
2018-06-11T19:10:14.233Z,2.73
2018-06-11T19:12:43.143Z,1.90
2018-06-11T19:15:12.029Z,0.80
2018-06-11T19:17:40.968Z,0.40
2018-06-11T19:20:09.898Z,4.47
2018-06-11T19:22:38.977Z,4.27
2018-06-11T19:25:07.484Z,1.77
2018-06-11T19:27:49.917Z,1.37
2018-06-11T19:30:18.999Z,3.40
2018-06-11T19:32:47.969Z,2.03
2018-06-11T19:35:16.971Z,0.67
2018-06-11T19:37:46.005Z,5.03
2018-06-11T19:40:14.975Z,0.90
2018-06-11T19:42:43.910Z,2.27
2018-06-11T19:45:12.947Z,1.30
2018-06-11T19:47:42.052Z,1.70
2018-06-11T19:50:11.498Z,3.47
2018-06-11T19:52:40.471Z,1.43
2018-06-11T19:55:09.441Z,1.23
2018-06-11T19:57:39.005Z,0.33
2018-06-11T20:00:08.010Z,2.47
2018-06-11T20:02:36.962Z,1.03
2018-06-11T20:09:46.788Z,3.07
2018-06-11T20:12:38.662Z,5.10
2018-06-11T20:18:51.924Z,3.17
2018-06-11T20:21:58.866Z,0.30
2018-06-11T20:24:27.917Z,0.80
2018-06-11T20:26:56.994Z,0.97
2018-06-11T20:29:26.125Z,2.50
2018-06-11T20:31:55.798Z,2.90
2018-06-11T20:34:24.837Z,4.37
2018-06-11T20:36:53.825Z,5.47
2018-06-11T20:39:22.778Z,0.87
2018-06-11T20:41:51.848Z,1.27
2018-06-11T20:44:20.966Z,1.80
2018-06-11T20:46:51.724Z,2.47
2018-06-11T20:49:21.110Z,1.40
2018-06-11T20:51:50.149Z,0.77
2018-06-11T20:54:19.220Z,1.53
2018-06-11T20:56:48.354Z,1.33
2018-06-11T20:59:17.385Z,3.53
2018-06-11T21:01:46.387Z,2.20
2018-06-11T21:04:14.901Z,2.43
2018-06-11T21:06:44.003Z,0.37
2018-06-11T21:09:12.971Z,3.50
2018-06-11T21:11:48.622Z,1.57
2018-06-11T21:14:19.701Z,1.80
2018-06-11T21:16:48.661Z,3.43
2018-06-11T21:19:17.663Z,1.40
2018-06-11T21:21:46.620Z,0.67
2018-06-11T21:24:15.572Z,2.23
2018-06-11T21:26:44.753Z,3.23
2018-06-11T21:29:13.825Z,4.50
2018-06-11T21:31:42.754Z,5.33
2018-06-11T21:34:11.676Z,5.93
2018-06-11T21:36:40.640Z,2.73
2018-06-11T21:39:09.698Z,8.40
2018-06-11T21:41:38.612Z,2.23
2018-06-11T21:44:07.706Z,2.67
2018-06-11T21:46:36.642Z,9.00
2018-06-11T21:49:05.669Z,3.13
2018-06-11T21:51:36.092Z,2.60
2018-06-11T21:54:05.614Z,3.07
2018-06-11T21:56:34.789Z,4.90
2018-06-11T21:59:03.750Z,5.53
2018-06-11T22:01:32.721Z,2.93
2018-06-11T22:04:04.570Z,2.17
2018-06-11T22:06:33.540Z,1.27
2018-06-11T22:09:02.522Z,2.93
2018-06-11T22:11:31.455Z,0.40
2018-06-11T22:14:00.385Z,0.97
2018-06-11T22:16:29.294Z,2.30
2018-06-11T22:18:58.590Z,2.67
2018-06-11T22:21:27.618Z,6.13
2018-06-11T22:23:56.712Z,2.27
2018-06-11T22:26:25.657Z,3.60
2018-06-11T22:28:54.596Z,1.97
2018-06-11T22:31:23.504Z,1.40
2018-06-11T22:33:52.408Z,0.77
2018-06-11T22:36:21.333Z,1.03
2018-06-11T22:38:49.864Z,4.17
2018-06-11T22:41:18.754Z,4.70
2018-06-11T22:43:47.657Z,2.73
2018-06-11T22:46:16.586Z,1.43
2018-06-11T22:48:45.501Z,0.97
2018-06-11T22:51:14.429Z,1.40
2018-06-11T22:53:43.365Z,1.73
2018-06-11T22:56:11.864Z,0.73
2018-06-11T22:58:40.772Z,1.53
2018-06-11T23:01:09.755Z,3.10
2018-06-11T23:03:38.730Z,3.43
2018-06-11T23:06:07.723Z,3.20
2018-06-11T23:08:36.675Z,3.03
2018-06-11T23:11:05.997Z,6.30
2018-06-11T23:13:34.938Z,6.33
2018-06-11T23:16:03.854Z,3.33
2018-06-11T23:18:32.806Z,3.70
2018-06-11T23:21:01.742Z,2.63
2018-06-11T23:23:30.716Z,0.93
2018-06-11T23:25:59.649Z,2.13
2018-06-11T23:28:28.573Z,3.90
2018-06-11T23:30:57.486Z,3.63
2018-06-11T23:33:26.403Z,3.07
2018-06-11T23:35:55.425Z,3.77
2018-06-11T23:38:24.353Z,2.83
2018-06-11T23:40:53.325Z,2.10
2018-06-11T23:43:22.238Z,5.17
2018-06-11T23:45:51.161Z,3.67
2018-06-11T23:48:20.085Z,6.97
2018-06-11T23:50:49.002Z,7.03
2018-06-11T23:53:17.946Z,6.47
2018-06-11T23:55:46.885Z,2.03
2018-06-11T23:58:15.849Z,2.70
